createdAt,value
2022-10-09T00:01:21.539Z,5.68
2022-10-09T00:03:50.992Z,5.63
2022-10-09T00:06:24.237Z,5.47
2022-10-09T00:08:51.979Z,5.18
2022-10-09T00:11:22.783Z,5.05
2022-10-09T00:13:51.125Z,3.10
2022-10-09T00:16:19.608Z,3.08
2022-10-09T00:18:47.878Z,4.80
2022-10-09T00:21:28.062Z,6.13
2022-10-09T00:23:58.059Z,3.40
2022-10-09T00:26:26.349Z,4.60
2022-10-09T00:28:54.584Z,5.03
2022-10-09T00:31:22.987Z,3.97
2022-10-09T00:33:50.851Z,5.35
2022-10-09T00:36:21.075Z,2.55
2022-10-09T00:38:48.965Z,4.13
2022-10-09T00:41:19.479Z,5.28
2022-10-09T00:43:49.004Z,5.82
2022-10-09T00:46:40.855Z,5.95
2022-10-09T00:49:11.639Z,4.60
2022-10-09T00:51:40.570Z,3.33
2022-10-09T00:54:11.868Z,5.35
2022-10-09T00:56:39.424Z,8.35
2022-10-09T00:59:07.716Z,4.97
2022-10-09T01:01:35.544Z,5.95
2022-10-09T01:04:03.033Z,5.35
2022-10-09T01:07:31.727Z,4.88
2022-10-09T01:10:07.647Z,4.15
2022-10-09T01:12:41.091Z,4.10
2022-10-09T01:15:30.287Z,5.03
2022-10-09T01:18:09.676Z,9.23
2022-10-09T01:20:40.235Z,3.63
2022-10-09T01:23:28.507Z,6.40
2022-10-09T01:25:58.851Z,4.75
2022-10-09T01:28:29.181Z,6.03
2022-10-09T01:31:03.478Z,4.75
2022-10-09T01:33:32.510Z,7.05
2022-10-09T01:36:01.381Z,5.00
2022-10-09T01:38:29.728Z,4.55
2022-10-09T01:40:57.681Z,3.65
2022-10-09T01:43:25.320Z,3.60
2022-10-09T01:45:52.933Z,6.40
2022-10-09T01:48:25.231Z,5.55
2022-10-09T01:50:58.916Z,4.80
2022-10-09T01:53:27.248Z,4.40
2022-10-09T01:56:13.437Z,3.00
2022-10-09T01:58:58.189Z,5.63
2022-10-09T02:01:39.661Z,5.82
2022-10-09T02:04:11.749Z,5.45
2022-10-09T02:06:41.156Z,9.60
2022-10-09T02:09:13.131Z,8.80
2022-10-09T02:11:43.677Z,8.75
2022-10-09T02:14:11.430Z,5.55
2022-10-09T02:16:49.312Z,8.68
2022-10-09T02:19:36.968Z,7.43
2022-10-09T02:22:23.183Z,6.47
2022-10-09T02:24:51.302Z,7.40
2022-10-09T02:27:21.160Z,5.80
2022-10-09T02:29:49.513Z,9.43
2022-10-09T02:32:17.361Z,10.27
2022-10-09T02:34:45.269Z,10.27
2022-10-09T02:37:12.901Z,5.13
2022-10-09T02:39:41.019Z,4.38
2022-10-09T02:42:08.436Z,7.03
2022-10-09T02:44:36.140Z,8.85
2022-10-09T02:47:03.947Z,7.53
2022-10-09T02:49:31.711Z,9.20
2022-10-09T02:51:59.300Z,7.40
2022-10-09T02:54:26.737Z,6.25
2022-10-09T02:56:54.186Z,8.68
2022-10-09T02:59:21.844Z,7.68
2022-10-09T03:01:49.381Z,5.15
2022-10-09T03:04:16.930Z,6.50
2022-10-09T03:06:44.427Z,6.70
2022-10-09T03:09:11.912Z,10.48
2022-10-09T03:11:39.420Z,2.67
2022-10-09T03:14:07.007Z,5.70
2022-10-09T03:16:34.546Z,14.20
2022-10-09T03:19:02.201Z,7.32
2022-10-09T03:21:29.689Z,6.68
2022-10-09T03:23:57.277Z,7.05
2022-10-09T03:26:26.679Z,7.25
2022-10-09T03:28:55.389Z,6.47
2022-10-09T03:31:51.738Z,6.13
2022-10-09T03:34:13.001Z,5.70
2022-10-09T03:36:40.859Z,5.93
2022-10-09T03:39:09.081Z,6.55
2022-10-09T03:41:36.517Z,7.22
2022-10-09T03:44:04.068Z,8.15
2022-10-09T03:46:31.625Z,7.32
2022-10-09T03:48:59.150Z,7.43
2022-10-09T03:51:26.673Z,7.97
2022-10-09T03:53:54.189Z,9.20
2022-10-09T03:56:21.620Z,6.03
2022-10-09T03:58:49.116Z,8.00
2022-10-09T04:01:16.632Z,6.03
2022-10-09T04:03:44.154Z,4.53
2022-10-09T04:06:11.684Z,9.43
2022-10-09T04:08:39.148Z,9.50
2022-10-09T04:11:06.756Z,13.00
2022-10-09T04:13:34.281Z,10.65
2022-10-09T04:16:02.058Z,11.32
2022-10-09T04:18:29.566Z,7.75
2022-10-09T04:20:57.593Z,11.45
2022-10-09T04:23:27.655Z,11.20
2022-10-09T04:25:56.483Z,14.57
2022-10-09T04:28:24.670Z,16.95
2022-10-09T04:30:52.865Z,12.07
2022-10-09T04:33:20.762Z,10.60
2022-10-09T04:35:51.598Z,9.20
2022-10-09T04:38:20.126Z,9.85
2022-10-09T04:41:05.431Z,11.75
2022-10-09T04:43:34.252Z,10.93
2022-10-09T04:46:06.310Z,9.40
2022-10-09T04:48:45.204Z,10.60
2022-10-09T04:51:13.699Z,11.57
2022-10-09T04:53:41.665Z,7.95
2022-10-09T04:56:13.818Z,9.88
2022-10-09T04:58:41.429Z,8.15
2022-10-09T05:01:16.455Z,7.15
2022-10-09T05:03:44.407Z,15.63
2022-10-09T05:06:13.498Z,13.02
2022-10-09T05:08:42.509Z,10.02
2022-10-09T05:11:15.460Z,9.13
2022-10-09T05:13:49.673Z,5.00
2022-10-09T05:16:20.428Z,5.38
2022-10-09T05:18:51.597Z,8.18
2022-10-09T05:21:19.806Z,13.25
2022-10-09T05:23:47.579Z,6.38
2022-10-09T05:26:18.817Z,7.72
2022-10-09T05:28:47.434Z,11.52
2022-10-09T05:31:22.340Z,12.88
2022-10-09T05:33:50.042Z,7.63
2022-10-09T05:36:18.278Z,11.55
2022-10-09T05:38:46.141Z,11.00
2022-10-09T05:41:16.276Z,10.95
2022-10-09T05:43:46.062Z,9.85
2022-10-09T05:46:19.417Z,8.10
2022-10-09T05:48:52.822Z,7.25
2022-10-09T05:51:22.954Z,8.30
2022-10-09T05:53:51.302Z,16.33
2022-10-09T05:56:20.764Z,16.98
2022-10-09T05:58:58.053Z,8.20
2022-10-09T06:01:31.610Z,12.55
2022-10-09T06:04:00.817Z,7.25
2022-10-09T06:06:30.250Z,9.55
2022-10-09T06:08:58.667Z,15.35
2022-10-09T06:11:31.645Z,7.40
2022-10-09T06:14:00.838Z,7.80
2022-10-09T06:16:32.618Z,9.25
2022-10-09T06:19:00.936Z,7.35
2022-10-09T06:21:28.860Z,7.05
2022-10-09T06:23:58.737Z,10.43
2022-10-09T06:26:29.405Z,6.68
2022-10-09T06:28:58.503Z,7.78
2022-10-09T06:31:28.271Z,7.20
2022-10-09T06:33:58.157Z,6.25
2022-10-09T06:36:28.988Z,8.60
2022-10-09T06:38:58.831Z,4.32
2022-10-09T06:41:27.868Z,4.38
2022-10-09T06:43:57.650Z,5.80
2022-10-09T06:46:27.782Z,7.45
2022-10-09T06:48:55.570Z,8.07
2022-10-09T06:51:24.147Z,4.90
2022-10-09T06:53:53.861Z,6.93
2022-10-09T06:56:23.465Z,3.00
2022-10-09T06:58:50.966Z,2.78
2022-10-09T07:01:19.755Z,10.23
2022-10-09T07:03:53.001Z,5.40
2022-10-09T07:06:26.066Z,5.53
2022-10-09T07:08:57.040Z,11.45
2022-10-09T07:11:27.587Z,17.60
2022-10-09T07:13:58.763Z,19.67
2022-10-09T07:16:40.933Z,15.48
2022-10-09T07:19:11.272Z,11.65
2022-10-09T07:21:45.065Z,9.60
2022-10-09T07:24:14.895Z,9.93
2022-10-09T07:26:44.670Z,10.55
2022-10-09T07:29:15.432Z,17.80
2022-10-09T07:31:43.924Z,11.52
2022-10-09T07:34:11.481Z,10.85
2022-10-09T07:36:39.092Z,14.18
2022-10-09T07:39:06.802Z,16.70
2022-10-09T07:41:34.882Z,9.95
2022-10-09T07:44:02.323Z,11.10
2022-10-09T07:46:33.772Z,6.07
2022-10-09T07:49:02.471Z,9.50
2022-10-09T07:51:30.799Z,8.00
2022-10-09T07:54:00.292Z,7.13
2022-10-09T07:56:30.518Z,7.82
2022-10-09T07:59:03.827Z,10.48
2022-10-09T08:01:33.101Z,8.48
2022-10-09T08:04:01.086Z,11.68
2022-10-09T08:06:28.900Z,9.50
2022-10-09T08:08:59.220Z,8.18
2022-10-09T08:11:28.795Z,10.13
2022-10-09T08:13:56.605Z,6.30
2022-10-09T08:16:25.135Z,5.95
2022-10-09T08:18:57.668Z,4.38
2022-10-09T08:21:26.231Z,8.23
2022-10-09T08:23:55.713Z,8.25
2022-10-09T08:26:24.704Z,8.05
2022-10-09T08:29:00.959Z,5.72
2022-10-09T08:31:31.884Z,10.82
2022-10-09T08:34:01.665Z,8.80
2022-10-09T08:36:30.037Z,9.25
2022-10-09T08:38:57.516Z,10.90
2022-10-09T08:41:42.024Z,8.95
2022-10-09T08:44:25.947Z,9.20
2022-10-09T08:47:16.770Z,13.00
2022-10-09T08:50:06.031Z,12.77
2022-10-09T08:52:36.585Z,16.10
2022-10-09T08:55:36.982Z,10.07
2022-10-09T08:58:06.520Z,11.38
2022-10-09T09:00:44.579Z,16.90
2022-10-09T09:03:20.646Z,15.50
2022-10-09T09:09:01.273Z,11.73
2022-10-09T09:11:39.180Z,10.02
2022-10-09T09:14:21.048Z,14.88
2022-10-09T09:17:07.157Z,10.82
2022-10-09T09:19:46.152Z,15.98
2022-10-09T09:22:15.788Z,14.25
2022-10-09T09:24:57.493Z,13.40
2022-10-09T09:27:31.669Z,14.63
2022-10-09T09:30:14.735Z,13.23
2022-10-09T09:32:50.084Z,17.83
2022-10-09T09:35:43.090Z,15.80
2022-10-09T09:38:10.756Z,16.50
2022-10-09T09:40:40.527Z,19.70
2022-10-09T09:43:19.490Z,19.70
2022-10-09T09:45:48.072Z,15.20
2022-10-09T09:48:41.078Z,10.77
2022-10-09T09:51:30.287Z,12.23
2022-10-09T09:54:14.757Z,7.43
2022-10-09T09:59:40.640Z,12.23
2022-10-09T10:02:20.451Z,23.08
2022-10-09T10:04:57.520Z,19.55
2022-10-09T10:07:36.450Z,12.85
2022-10-09T10:10:10.260Z,8.80
2022-10-09T10:13:01.840Z,16.95
2022-10-09T10:15:31.948Z,13.70
2022-10-09T10:18:04.159Z,9.07
2022-10-09T10:20:34.065Z,20.70
2022-10-09T10:23:01.630Z,13.60
2022-10-09T10:25:34.111Z,8.75
2022-10-09T10:28:07.438Z,10.68
2022-10-09T10:30:37.694Z,11.40
2022-10-09T10:33:22.126Z,11.60
2022-10-09T10:35:55.390Z,7.20
2022-10-09T10:38:26.005Z,11.40
2022-10-09T10:41:03.238Z,13.02
2022-10-09T10:43:49.581Z,14.63
2022-10-09T10:46:37.402Z,8.57
2022-10-09T10:49:07.456Z,17.48
2022-10-09T10:51:58.363Z,11.13
2022-10-09T10:54:37.751Z,21.52
2022-10-09T10:57:09.433Z,11.55
2022-10-09T11:00:06.712Z,14.60
2022-10-09T11:02:58.631Z,14.27
2022-10-09T11:05:56.913Z,14.23
2022-10-09T11:08:46.164Z,8.25
2022-10-09T11:11:38.196Z,10.55
2022-10-09T11:14:23.374Z,14.93
2022-10-09T11:17:15.625Z,17.13
2022-10-09T11:20:03.480Z,14.18
2022-10-09T11:22:40.300Z,19.67
2022-10-09T11:25:32.826Z,9.85
2022-10-09T11:28:10.497Z,21.38
2022-10-09T11:31:04.266Z,18.48
2022-10-09T11:33:38.916Z,11.48
2022-10-09T11:36:14.728Z,11.48
2022-10-09T11:38:51.761Z,16.00
2022-10-09T11:41:20.301Z,17.63
2022-10-09T11:43:59.782Z,10.18
2022-10-09T11:46:53.448Z,17.45
2022-10-09T11:49:48.307Z,17.08
2022-10-09T11:52:29.789Z,12.95
2022-10-09T11:55:17.940Z,13.25
2022-10-09T11:57:45.523Z,16.80
2022-10-09T12:00:14.170Z,13.43
2022-10-09T12:02:43.639Z,13.85
2022-10-09T12:05:28.148Z,18.48
2022-10-09T12:08:19.457Z,13.55
2022-10-09T12:10:58.286Z,17.17
2022-10-09T12:13:31.604Z,17.20
2022-10-09T12:15:59.973Z,17.15
2022-10-09T12:18:45.565Z,15.07
2022-10-09T12:21:24.767Z,21.57
2022-10-09T12:23:53.484Z,14.82
2022-10-09T12:26:23.942Z,16.00
2022-10-09T12:29:02.859Z,12.88
2022-10-09T12:31:35.064Z,17.75
2022-10-09T12:34:37.520Z,17.25
2022-10-09T12:37:17.991Z,17.13
2022-10-09T12:39:47.112Z,15.02
2022-10-09T12:42:24.882Z,18.85
2022-10-09T12:44:54.929Z,16.58
2022-10-09T12:47:29.040Z,17.35
2022-10-09T12:50:17.210Z,18.88
2022-10-09T12:52:52.860Z,17.20
2022-10-09T12:55:28.212Z,15.63
2022-10-09T12:58:03.438Z,15.60
2022-10-09T13:00:33.155Z,14.13
2022-10-09T13:03:01.646Z,21.75
2022-10-09T13:05:40.229Z,13.18
2022-10-09T13:08:24.210Z,18.60
2022-10-09T13:10:52.611Z,12.98
2022-10-09T13:13:24.996Z,20.45
2022-10-09T13:16:01.992Z,18.85
2022-10-09T13:18:29.827Z,13.73
2022-10-09T13:21:04.810Z,21.08
2022-10-09T13:23:35.115Z,15.45
2022-10-09T13:26:05.084Z,19.60
2022-10-09T13:28:32.660Z,16.52
2022-10-09T13:31:07.626Z,17.40
2022-10-09T13:33:35.248Z,14.98
2022-10-09T13:36:02.653Z,18.70
2022-10-09T13:38:34.627Z,18.42
2022-10-09T13:41:02.739Z,20.13
2022-10-09T13:43:31.296Z,21.45
2022-10-09T13:45:59.105Z,14.93
2022-10-09T13:48:26.757Z,13.95
2022-10-09T13:50:54.349Z,15.45
2022-10-09T13:53:21.949Z,20.10
2022-10-09T13:55:49.469Z,21.77
2022-10-09T13:58:16.945Z,12.13
2022-10-09T14:00:45.359Z,14.77
2022-10-09T14:03:12.981Z,17.98
2022-10-09T14:05:41.006Z,18.98
2022-10-09T14:08:08.541Z,15.27
2022-10-09T14:10:36.161Z,17.45
2022-10-09T14:13:03.731Z,18.40
2022-10-09T14:15:31.385Z,13.57
2022-10-09T14:17:58.976Z,19.33
2022-10-09T14:20:28.698Z,15.85
2022-10-09T14:22:56.212Z,22.75
2022-10-09T14:25:23.667Z,15.60
2022-10-09T14:27:51.227Z,14.40
2022-10-09T14:30:18.793Z,23.00
2022-10-09T14:32:47.441Z,18.02
2022-10-09T14:35:18.244Z,20.55
2022-10-09T14:37:48.990Z,20.35
2022-10-09T14:40:16.793Z,31.35
2022-10-09T14:42:44.288Z,17.38
2022-10-09T14:45:11.846Z,18.13
2022-10-09T14:47:39.343Z,18.83
2022-10-09T14:50:07.498Z,18.27
2022-10-09T14:52:35.001Z,17.85
2022-10-09T14:55:02.520Z,18.92
2022-10-09T14:57:34.382Z,18.15
2022-10-09T15:00:05.774Z,19.55
2022-10-09T15:02:33.630Z,24.75
2022-10-09T15:05:01.211Z,13.25
2022-10-09T15:07:28.838Z,17.98
2022-10-09T15:09:57.021Z,16.67
2022-10-09T15:12:24.517Z,15.52
2022-10-09T15:14:52.200Z,19.02
2022-10-09T15:17:19.828Z,17.25
2022-10-09T15:19:47.313Z,18.45
2022-10-09T15:22:14.785Z,17.95
2022-10-09T15:24:42.198Z,17.95
2022-10-09T15:27:09.772Z,15.65
2022-10-09T15:29:37.351Z,18.08
2022-10-09T15:32:04.835Z,27.23
2022-10-09T15:34:32.420Z,12.90
2022-10-09T15:36:59.892Z,16.67
2022-10-09T15:39:27.384Z,20.23
2022-10-09T15:41:54.939Z,22.55
2022-10-09T15:44:22.388Z,19.58
2022-10-09T15:46:50.202Z,21.05
2022-10-09T15:49:18.162Z,17.48
2022-10-09T15:51:45.806Z,11.88
2022-10-09T15:54:14.545Z,16.52
2022-10-09T15:56:42.424Z,16.17
2022-10-09T15:59:13.877Z,20.17
2022-10-09T16:01:41.574Z,10.98
2022-10-09T16:04:09.688Z,15.55
2022-10-09T16:06:38.015Z,11.40
2022-10-09T16:09:05.531Z,13.00
2022-10-09T16:11:34.605Z,11.20
2022-10-09T16:14:02.346Z,23.85
2022-10-09T16:16:29.942Z,17.65
2022-10-09T16:18:57.431Z,15.02
2022-10-09T16:21:28.199Z,18.73
2022-10-09T16:23:59.051Z,16.65
2022-10-09T16:26:29.332Z,19.20
2022-10-09T16:28:57.491Z,18.38
2022-10-09T16:31:30.772Z,13.80
2022-10-09T16:33:58.673Z,18.75
2022-10-09T16:36:26.450Z,18.52
2022-10-09T16:38:55.564Z,12.75
2022-10-09T16:41:24.205Z,12.40
2022-10-09T16:43:54.429Z,16.92
2022-10-09T16:46:28.399Z,19.52
2022-10-09T16:48:57.535Z,17.85
2022-10-09T16:51:30.546Z,14.18
2022-10-09T16:54:00.625Z,16.33
2022-10-09T16:56:36.315Z,24.27
2022-10-09T16:59:06.943Z,20.27
2022-10-09T17:01:37.705Z,17.15
2022-10-09T17:04:05.561Z,16.98
2022-10-09T17:06:33.295Z,12.18
2022-10-09T17:09:00.926Z,17.60
2022-10-09T17:11:30.533Z,18.15
2022-10-09T17:13:58.158Z,19.33
2022-10-09T17:16:28.208Z,20.17
2022-10-09T17:18:55.975Z,15.43
2022-10-09T17:21:26.711Z,15.20
2022-10-09T17:23:59.008Z,16.20
2022-10-09T17:26:27.811Z,19.05
2022-10-09T17:28:57.347Z,15.27
2022-10-09T17:31:25.768Z,18.88
2022-10-09T17:33:56.445Z,15.70
2022-10-09T17:36:26.219Z,17.55
2022-10-09T17:38:53.969Z,12.00
2022-10-09T17:41:23.729Z,18.73
2022-10-09T17:43:59.280Z,20.95
2022-10-09T17:46:28.530Z,13.05
2022-10-09T17:48:57.055Z,17.38
2022-10-09T17:51:27.996Z,19.40
2022-10-09T17:56:26.899Z,16.85
2022-10-09T17:58:56.137Z,15.80
2022-10-09T18:01:24.207Z,18.45
2022-10-09T18:03:52.214Z,22.13
2022-10-09T18:06:23.952Z,16.05
2022-10-09T18:08:54.091Z,16.65
2022-10-09T18:11:23.901Z,17.05
2022-10-09T18:13:51.535Z,22.10
2022-10-09T18:16:35.232Z,18.38
2022-10-09T18:19:12.260Z,14.82
2022-10-09T18:21:42.992Z,13.98
2022-10-09T18:24:11.079Z,23.75
2022-10-09T18:26:39.481Z,19.27
2022-10-09T18:29:07.866Z,17.65
2022-10-09T18:31:35.699Z,18.48
2022-10-09T18:34:03.372Z,17.48
2022-10-09T18:36:31.868Z,20.50
2022-10-09T18:39:02.514Z,15.35
2022-10-09T18:41:30.126Z,19.15
2022-10-09T18:43:59.998Z,20.70
2022-10-09T18:46:33.981Z,17.75
2022-10-09T18:49:01.964Z,17.33
2022-10-09T18:51:29.682Z,21.45
2022-10-09T18:54:02.272Z,21.00
2022-10-09T18:56:32.371Z,17.90
2022-10-09T18:59:03.620Z,25.05
2022-10-09T19:01:31.260Z,16.88
2022-10-09T19:03:59.162Z,20.70
2022-10-09T19:06:26.932Z,15.70
2022-10-09T19:08:58.050Z,17.75
2022-10-09T19:11:25.584Z,21.10
2022-10-09T19:13:54.716Z,14.35
2022-10-09T19:16:24.318Z,18.63
2022-10-09T19:18:53.359Z,20.48
2022-10-09T19:21:20.917Z,31.42
2022-10-09T19:23:49.619Z,23.60
2022-10-09T19:26:17.424Z,15.95
2022-10-09T19:28:45.785Z,28.73
2022-10-09T19:31:14.490Z,19.00
2022-10-09T19:33:42.908Z,19.30
2022-10-09T19:36:12.827Z,18.63
2022-10-09T19:38:41.512Z,20.27
2022-10-09T19:41:14.197Z,27.33
2022-10-09T19:43:42.975Z,19.80
2022-10-09T19:46:14.304Z,26.17
2022-10-09T19:48:41.854Z,12.88
2022-10-09T19:51:16.329Z,16.60
2022-10-09T19:53:44.365Z,24.63
2022-10-09T19:56:17.321Z,25.70
2022-10-09T19:58:46.991Z,17.67
2022-10-09T20:01:16.840Z,12.43
2022-10-09T20:03:44.746Z,18.88
2022-10-09T20:06:12.614Z,14.73
2022-10-09T20:08:42.099Z,19.30
2022-10-09T20:11:11.591Z,8.68
2022-10-09T20:13:41.024Z,2.28
2022-10-09T20:16:12.271Z,1.10
2022-10-09T20:18:42.429Z,0.57
2022-10-09T20:21:13.413Z,0.43
2022-10-09T20:23:41.623Z,1.85
2022-10-09T20:26:19.507Z,0.40
2022-10-09T20:28:47.854Z,0.90
2022-10-09T20:31:21.160Z,0.95
2022-10-09T20:33:50.552Z,2.45
2022-10-09T20:36:35.521Z,2.58
2022-10-09T20:39:07.168Z,3.03
2022-10-09T20:41:35.318Z,5.63
2022-10-09T20:44:06.197Z,9.35
2022-10-09T20:46:36.652Z,5.07
2022-10-09T20:49:06.728Z,9.23
2022-10-09T20:51:38.707Z,6.78
2022-10-09T20:54:07.581Z,7.15
2022-10-09T20:56:35.708Z,8.07
2022-10-09T20:59:04.190Z,4.20
2022-10-09T21:01:31.749Z,6.50
2022-10-09T21:03:59.567Z,6.43
2022-10-09T21:06:27.541Z,5.32
2022-10-09T21:08:55.383Z,5.55
2022-10-09T21:11:23.287Z,6.80
2022-10-09T21:13:51.066Z,8.05
2022-10-09T21:16:22.726Z,5.95
2022-10-09T21:18:55.055Z,8.55
2022-10-09T21:21:22.977Z,6.32
2022-10-09T21:23:52.499Z,7.78
2022-10-09T21:26:22.085Z,6.25
2022-10-09T21:28:53.255Z,7.10
2022-10-09T21:31:28.540Z,7.25
2022-10-09T21:33:57.443Z,3.70
2022-10-09T21:36:34.831Z,6.72
2022-10-09T21:39:03.536Z,7.20
2022-10-09T21:41:30.997Z,4.68
2022-10-09T21:43:58.725Z,9.77
2022-10-09T21:46:26.389Z,5.43
2022-10-09T21:48:54.157Z,5.43
2022-10-09T21:51:21.816Z,7.72
2022-10-09T21:53:49.718Z,5.00
2022-10-09T21:56:17.546Z,7.22
2022-10-09T21:58:48.933Z,9.25
2022-10-09T22:01:17.393Z,4.50
2022-10-09T22:03:45.261Z,7.70
2022-10-09T22:06:18.887Z,8.13
2022-10-09T22:08:48.097Z,8.65
2022-10-09T22:11:16.456Z,9.65
2022-10-09T22:13:44.129Z,6.85
2022-10-09T22:16:13.895Z,10.52
2022-10-09T22:18:42.049Z,5.72
2022-10-09T22:21:12.472Z,7.57
2022-10-09T22:23:42.828Z,5.63
2022-10-09T22:26:17.092Z,4.70
2022-10-09T22:28:46.044Z,4.53
2022-10-09T22:31:16.437Z,6.88
2022-10-09T22:33:44.160Z,6.05
2022-10-09T22:36:15.378Z,5.90
2022-10-09T22:38:44.226Z,10.25
2022-10-09T22:41:17.933Z,6.63
2022-10-09T22:43:47.787Z,4.28
2022-10-09T22:46:19.002Z,5.78
2022-10-09T22:48:46.762Z,6.10
2022-10-09T22:51:16.976Z,6.45
2022-10-09T22:53:45.289Z,5.57
2022-10-09T22:56:16.019Z,9.07
2022-10-09T22:58:44.311Z,5.78
2022-10-09T23:01:15.552Z,2.25
2022-10-09T23:03:43.691Z,4.25
2022-10-09T23:06:14.325Z,4.95
2022-10-09T23:08:43.864Z,3.65
2022-10-09T23:11:12.683Z,6.40
2022-10-09T23:13:40.411Z,3.50
2022-10-09T23:16:10.505Z,3.80
2022-10-09T23:18:39.416Z,3.33
2022-10-09T23:21:12.406Z,6.78
2022-10-09T23:23:40.886Z,3.13
2022-10-09T23:26:12.243Z,7.90
2022-10-09T23:28:40.755Z,8.02
2022-10-09T23:31:11.113Z,8.63
2022-10-09T23:33:40.727Z,3.88
2022-10-09T23:36:10.887Z,4.82
2022-10-09T23:38:38.748Z,6.78
2022-10-09T23:41:09.194Z,2.90
2022-10-09T23:43:39.989Z,4.35
2022-10-09T23:46:11.314Z,8.57
2022-10-09T23:48:38.817Z,4.80
2022-10-09T23:51:06.878Z,4.28
2022-10-09T23:53:34.868Z,3.38
2022-10-09T23:56:20.633Z,6.18
2022-10-09T23:58:48.177Z,9.45
